createdAt,value
2023-05-02T00:00:45.999Z,101265.0
2023-05-02T00:04:45.974Z,101272.27
2023-05-02T00:08:47.769Z,101277.68
2023-05-02T00:12:45.837Z,101277.86
2023-05-02T00:16:46.096Z,101280.35
2023-05-02T00:20:45.788Z,101290.08
2023-05-02T00:28:45.901Z,101294.75
2023-05-02T00:32:46.035Z,101298.19
2023-05-02T00:36:47.133Z,101302.84
2023-05-02T00:40:48.006Z,101305.22
2023-05-02T00:44:46.065Z,101305.11
2023-05-02T00:48:45.948Z,101304.76999999999
2023-05-02T00:52:46.384Z,101304.06
2023-05-02T00:56:46.170Z,101298.95
2023-05-02T01:00:57.640Z,101298.67
2023-05-02T01:04:59.001Z,101305.76999999999
2023-05-02T01:08:51.496Z,101313.23999999999
2023-05-02T01:12:53.489Z,101318.48
2023-05-02T01:16:47.560Z,101318.20999999999
2023-05-02T01:20:49.640Z,101319.67
2023-05-02T01:24:57.787Z,101323.64
2023-05-02T01:28:54.481Z,101330.26999999999
2023-05-02T01:32:49.189Z,101335.69
2023-05-02T01:40:49.286Z,101341.85
2023-05-02T01:44:47.688Z,101337.95
2023-05-02T01:48:48.254Z,101346.42
2023-05-02T01:52:50.423Z,101344.25
2023-05-02T01:56:46.822Z,101349.65999999999
2023-05-02T02:00:47.971Z,101350.59
2023-05-02T02:04:47.917Z,101353.97
2023-05-02T02:08:46.282Z,101357.06999999999
2023-05-02T02:12:51.711Z,101356.88
2023-05-02T02:16:48.531Z,101359.22
2023-05-02T02:24:47.557Z,101368.12
2023-05-02T02:28:46.994Z,101375.89
2023-05-02T02:32:46.457Z,101381.48
2023-05-02T02:36:54.276Z,101386.69
2023-05-02T02:40:52.213Z,101391.06
2023-05-02T02:44:55.396Z,101396.17
2023-05-02T02:48:52.767Z,101400.15
2023-05-02T02:52:54.183Z,101399.8
2023-05-02T03:00:47.657Z,101405.17
2023-05-02T03:04:47.019Z,101414.20000000001
2023-05-02T03:08:46.884Z,101412.97
2023-05-02T03:12:46.659Z,101412.62000000001
2023-05-02T03:20:46.658Z,101415.72
2023-05-02T03:28:46.657Z,101423.77
2023-05-02T03:32:46.408Z,101422.99
2023-05-02T03:36:46.649Z,101422.34999999999
2023-05-02T03:40:46.574Z,101429.1
2023-05-02T03:44:46.610Z,101437.3
2023-05-02T03:48:46.447Z,101442.13
2023-05-02T03:52:46.733Z,101446.53
2023-05-02T03:56:46.863Z,101443.76999999999
2023-05-02T04:00:46.603Z,101446.66
2023-05-02T04:04:46.806Z,101450.23
2023-05-02T04:12:46.699Z,101467.17
2023-05-02T04:16:48.375Z,101468.81
2023-05-02T04:20:46.717Z,101472.31
2023-05-02T04:32:46.780Z,101474.92
2023-05-02T04:36:46.750Z,101482.56
2023-05-02T04:40:49.129Z,101484.22
2023-05-02T04:48:46.798Z,101494.03
2023-05-02T04:52:46.724Z,101495.81
2023-05-02T04:56:47.035Z,101500.25
2023-05-02T05:00:47.058Z,101513.11
2023-05-02T05:04:46.737Z,101524.44
2023-05-02T05:08:46.633Z,101531.61
2023-05-02T05:16:46.977Z,101533.39
2023-05-02T05:20:46.623Z,101538.55
2023-05-02T05:24:54.720Z,101544.42
2023-05-02T05:28:46.663Z,101546.11
2023-05-02T05:32:47.363Z,101551.06
2023-05-02T05:36:46.774Z,101549.5
2023-05-02T05:40:48.397Z,101550.83
2023-05-02T05:44:46.699Z,101552.09999999999
2023-05-02T05:48:46.885Z,101557.20999999999
2023-05-02T05:52:46.803Z,101566.18999999999
2023-05-02T05:56:47.045Z,101575.59
2023-05-02T06:00:46.791Z,101586.56999999999
2023-05-02T06:08:47.014Z,101594.61
2023-05-02T06:12:48.559Z,101596.37
2023-05-02T06:20:47.160Z,101601.06
2023-05-02T06:24:46.901Z,101606.56
2023-05-02T06:28:46.980Z,101609.27
2023-05-02T06:32:46.956Z,101608.28
2023-05-02T06:36:46.965Z,101608.54000000001
2023-05-02T06:40:47.210Z,101612.73
2023-05-02T06:44:46.955Z,101612.41
2023-05-02T06:48:47.144Z,101611.5
2023-05-02T06:52:46.962Z,101616.33
2023-05-02T06:56:47.169Z,101624.08
2023-05-02T07:00:47.739Z,101625.03
2023-05-02T07:04:47.161Z,101627.09999999999
2023-05-02T07:08:47.048Z,101629.85
2023-05-02T07:12:46.995Z,101632.89
2023-05-02T07:16:47.445Z,101633.65
2023-05-02T07:20:47.182Z,101632.69
2023-05-02T07:24:47.087Z,101633.03
2023-05-02T07:28:47.059Z,101637.37
2023-05-02T07:36:47.072Z,101634.93999999999
2023-05-02T07:40:47.072Z,101638.58
2023-05-02T07:44:47.304Z,101640.94
2023-05-02T07:48:47.135Z,101644.34
2023-05-02T07:52:47.146Z,101650.12000000001
2023-05-02T07:56:47.898Z,101653.38
2023-05-02T08:00:47.662Z,101654.03
2023-05-02T08:04:47.146Z,101653.0
2023-05-02T08:08:47.123Z,101649.55
2023-05-02T08:12:47.176Z,101652.4
2023-05-02T08:16:47.405Z,101652.44
2023-05-02T08:20:47.665Z,101652.37
2023-05-02T08:24:47.279Z,101652.53
2023-05-02T08:28:47.210Z,101660.39
2023-05-02T08:32:47.440Z,101659.97
2023-05-02T08:36:47.455Z,101664.70000000001
2023-05-02T08:40:47.465Z,101669.59000000001
2023-05-02T08:44:47.727Z,101676.31
2023-05-02T08:48:50.057Z,101684.12
2023-05-02T08:56:48.349Z,101692.26999999999
2023-05-02T09:00:51.599Z,101704.36
2023-05-02T09:04:53.402Z,101714.39
2023-05-02T09:08:49.082Z,101718.0
2023-05-02T09:12:48.176Z,101722.83
2023-05-02T09:16:47.356Z,101720.95000000001
2023-05-02T09:20:47.490Z,101718.97
2023-05-02T09:24:53.744Z,101718.89
2023-05-02T09:28:49.322Z,101730.12999999999
2023-05-02T09:32:50.256Z,101728.43000000001
2023-05-02T09:36:50.275Z,101737.56
2023-05-02T09:40:53.670Z,101740.52
2023-05-02T09:44:47.896Z,101751.36
2023-05-02T09:48:52.376Z,101754.69
2023-05-02T09:53:01.530Z,101750.19
2023-05-02T09:56:55.607Z,101742.38
2023-05-02T10:00:50.168Z,101743.72
2023-05-02T10:04:48.960Z,101742.76
2023-05-02T10:08:48.378Z,101744.42
2023-05-02T10:12:51.816Z,101745.33
2023-05-02T10:16:54.520Z,101746.55
2023-05-02T10:20:54.094Z,101750.64
2023-05-02T10:24:48.547Z,101753.25
2023-05-02T10:28:47.911Z,101754.94
2023-05-02T10:32:50.649Z,101753.7
2023-05-02T10:36:47.599Z,101751.95999999999
2023-05-02T10:40:55.051Z,101752.98
2023-05-02T10:44:49.452Z,101752.42
2023-05-02T10:52:47.681Z,101767.7
2023-05-02T10:57:04.802Z,101775.14
2023-05-02T11:00:48.463Z,101772.04000000001
2023-05-02T11:04:58.589Z,101779.66
2023-05-02T11:08:48.015Z,101784.45
2023-05-02T11:12:49.313Z,101788.64
2023-05-02T11:20:47.956Z,101787.45
2023-05-02T11:24:49.170Z,101785.67
2023-05-02T11:28:48.819Z,101779.04999999999
2023-05-02T11:33:07.673Z,101781.91
2023-05-02T11:36:48.100Z,101776.19
2023-05-02T11:40:50.247Z,101782.17
2023-05-02T11:44:56.221Z,101780.7
2023-05-02T11:48:47.784Z,101778.22
2023-05-02T11:52:48.130Z,101782.47
2023-05-02T11:56:48.357Z,101784.04000000001
2023-05-02T12:00:49.442Z,101775.83
2023-05-02T12:04:47.805Z,101780.1
2023-05-02T12:08:48.162Z,101780.86
2023-05-02T12:12:47.936Z,101790.75
2023-05-02T12:16:48.035Z,101806.11
2023-05-02T12:20:49.213Z,101805.2
2023-05-02T12:24:48.585Z,101800.86
2023-05-02T12:28:49.469Z,101803.91
2023-05-02T12:32:56.797Z,101811.08
2023-05-02T12:36:47.943Z,101810.88
2023-05-02T12:40:50.369Z,101821.41
2023-05-02T12:44:51.127Z,101821.42
2023-05-02T12:49:01.387Z,101819.97
2023-05-02T12:52:49.814Z,101821.86
2023-05-02T12:56:50.833Z,101816.61
2023-05-02T13:00:48.239Z,101807.3
2023-05-02T13:04:48.103Z,101805.0
2023-05-02T13:08:48.086Z,101811.15999999999
2023-05-02T13:12:48.057Z,101801.29
2023-05-02T13:16:48.497Z,101803.54999999999
2023-05-02T13:20:48.033Z,101805.11
2023-05-02T13:24:48.262Z,101803.91
2023-05-02T13:28:48.063Z,101797.79
2023-05-02T13:32:48.214Z,101788.92
2023-05-02T13:36:48.093Z,101797.97
2023-05-02T13:40:48.912Z,101797.09
2023-05-02T13:44:48.108Z,101796.98
2023-05-02T13:48:48.151Z,101805.06
2023-05-02T13:52:51.293Z,101807.09000000001
2023-05-02T13:56:48.210Z,101804.08
2023-05-02T14:00:48.159Z,101801.09
2023-05-02T14:04:48.209Z,101795.48
2023-05-02T14:08:50.252Z,101802.23
2023-05-02T14:12:48.303Z,101805.19
2023-05-02T14:16:50.339Z,101802.55
2023-05-02T14:20:48.250Z,101807.69
2023-05-02T14:24:48.320Z,101809.74
2023-05-02T14:28:48.739Z,101802.61
2023-05-02T14:32:48.318Z,101799.13
2023-05-02T14:36:48.370Z,101799.72
2023-05-02T14:40:48.387Z,101796.0
2023-05-02T14:44:48.385Z,101795.9
2023-05-02T14:48:48.288Z,101788.79
2023-05-02T14:52:48.301Z,101787.3
2023-05-02T14:56:48.950Z,101789.87
2023-05-02T15:00:48.779Z,101786.36
2023-05-02T15:04:48.268Z,101785.79
2023-05-02T15:08:49.235Z,101794.61
2023-05-02T15:12:49.852Z,101794.19
2023-05-02T15:16:48.668Z,101794.51000000001
2023-05-02T15:24:48.472Z,101786.44
2023-05-02T15:28:48.455Z,101784.77
2023-05-02T15:32:48.659Z,101780.05
2023-05-02T15:36:48.350Z,101784.38
2023-05-02T15:40:53.493Z,101782.47
2023-05-02T15:44:48.491Z,101787.28
2023-05-02T15:48:48.942Z,101785.82
2023-05-02T15:52:48.464Z,101782.97
2023-05-02T16:00:48.704Z,101792.54
2023-05-02T16:04:48.609Z,101794.11
2023-05-02T16:08:48.724Z,101788.76000000001
2023-05-02T16:12:48.661Z,101783.34
2023-05-02T16:16:48.667Z,101784.3
2023-05-02T16:20:49.112Z,101783.13
2023-05-02T16:24:48.997Z,101781.12999999999
2023-05-02T16:28:48.508Z,101769.11
2023-05-02T16:32:48.920Z,101767.33
2023-05-02T16:36:48.660Z,101761.97
2023-05-02T16:40:48.651Z,101759.42
2023-05-02T16:44:48.930Z,101756.24
2023-05-02T16:48:48.659Z,101763.51
2023-05-02T16:52:48.795Z,101761.35
2023-05-02T16:56:48.976Z,101763.67
2023-05-02T17:00:48.650Z,101771.77
2023-05-02T17:04:49.109Z,101780.47
2023-05-02T17:08:48.660Z,101775.11
2023-05-02T17:12:48.828Z,101776.37
2023-05-02T17:16:48.724Z,101772.2
2023-05-02T17:20:49.255Z,101772.77
2023-05-02T17:24:51.833Z,101768.45
2023-05-02T17:28:52.461Z,101760.29999999999
2023-05-02T17:32:48.839Z,101759.23
2023-05-02T17:36:49.015Z,101766.90999999999
2023-05-02T17:40:48.793Z,101765.7
2023-05-02T17:44:49.037Z,101772.67
2023-05-02T17:48:48.721Z,101766.57
2023-05-02T17:52:49.897Z,101754.64
2023-05-02T17:56:49.616Z,101756.59000000001
2023-05-02T18:00:50.293Z,101753.71
2023-05-02T18:04:48.927Z,101757.83
2023-05-02T18:08:49.225Z,101755.35
2023-05-02T18:12:48.816Z,101752.48
2023-05-02T18:16:49.101Z,101754.21
2023-05-02T18:20:48.878Z,101753.43000000001
2023-05-02T18:24:49.381Z,101751.39
2023-05-02T18:28:52.287Z,101751.54
2023-05-02T18:32:48.990Z,101750.61
2023-05-02T18:36:49.052Z,101753.02
2023-05-02T18:40:49.220Z,101756.16
2023-05-02T18:44:48.931Z,101760.58
2023-05-02T18:48:49.483Z,101764.59
2023-05-02T18:52:48.996Z,101767.36
2023-05-02T18:56:49.530Z,101770.0
2023-05-02T19:00:49.571Z,101772.79999999999
2023-05-02T19:04:49.058Z,101775.81999999999
2023-05-02T19:08:49.252Z,101783.15
2023-05-02T19:12:49.101Z,101787.61
2023-05-02T19:16:49.891Z,101794.81
2023-05-02T19:20:49.435Z,101794.28
2023-05-02T19:24:49.845Z,101795.08
2023-05-02T19:28:49.462Z,101794.7
2023-05-02T19:32:49.297Z,101799.44
2023-05-02T19:36:49.203Z,101801.95999999999
2023-05-02T19:40:49.219Z,101808.51
2023-05-02T19:44:49.416Z,101819.11
2023-05-02T19:48:49.070Z,101822.69
2023-05-02T19:52:49.494Z,101830.51000000001
2023-05-02T19:56:49.331Z,101833.39
2023-05-02T20:00:50.790Z,101838.65
2023-05-02T20:04:49.224Z,101836.21
2023-05-02T20:08:50.121Z,101844.17
2023-05-02T20:12:49.214Z,101851.83
2023-05-02T20:16:49.535Z,101865.22
2023-05-02T20:20:49.276Z,101872.37
2023-05-02T20:24:49.263Z,101875.8
2023-05-02T20:28:49.348Z,101886.06999999999
2023-05-02T20:32:49.416Z,101884.59
2023-05-02T20:36:50.099Z,101879.68
2023-05-02T20:40:49.688Z,101878.15000000001
2023-05-02T20:44:53.658Z,101879.17
2023-05-02T20:48:50.048Z,101881.11
2023-05-02T20:52:49.465Z,101884.5
2023-05-02T20:56:49.350Z,101882.46
2023-05-02T21:00:51.392Z,101886.91
2023-05-02T21:04:50.290Z,101880.4
2023-05-02T21:08:49.594Z,101879.86
2023-05-02T21:12:49.601Z,101876.29
2023-05-02T21:16:49.640Z,101877.66
2023-05-02T21:20:49.622Z,101880.95
2023-05-02T21:24:50.111Z,101880.88
2023-05-02T21:28:49.711Z,101873.87999999999
2023-05-02T21:32:49.717Z,101869.26
2023-05-02T21:36:49.759Z,101860.56999999999
2023-05-02T21:40:49.663Z,101858.32
2023-05-02T21:44:49.663Z,101853.19
2023-05-02T21:48:49.446Z,101850.36
2023-05-02T21:52:49.840Z,101847.88
2023-05-02T21:56:49.575Z,101847.38
2023-05-02T22:00:49.538Z,101854.54
2023-05-02T22:04:49.846Z,101855.79000000001
2023-05-02T22:08:49.743Z,101857.05
2023-05-02T22:12:49.656Z,101861.58
2023-05-02T22:16:49.922Z,101856.7
2023-05-02T22:20:49.691Z,101849.97
2023-05-02T22:24:49.715Z,101849.67
2023-05-02T22:28:49.845Z,101845.43
2023-05-02T22:36:49.924Z,101879.74
2023-05-02T22:40:49.743Z,101865.67
2023-05-02T22:44:54.069Z,101862.78
2023-05-02T22:48:51.796Z,101854.1
2023-05-02T22:52:50.056Z,101856.92
2023-05-02T22:56:49.847Z,101862.92
2023-05-02T23:00:50.009Z,101857.06999999999
2023-05-02T23:04:50.040Z,101858.48999999999
2023-05-02T23:08:49.743Z,101854.07
2023-05-02T23:12:49.775Z,101854.92
2023-05-02T23:16:52.749Z,101852.11
2023-05-02T23:20:49.773Z,101851.93000000001
2023-05-02T23:24:50.286Z,101860.06
2023-05-02T23:28:49.762Z,101862.61
2023-05-02T23:32:50.570Z,101861.22
2023-05-02T23:36:52.222Z,101866.49
2023-05-02T23:40:51.020Z,101876.23
2023-05-02T23:44:49.719Z,101882.72
2023-05-02T23:48:49.856Z,101883.76
2023-05-02T23:52:49.791Z,101886.64
2023-05-02T23:56:52.229Z,101894.47
